createdAt,value
2018-03-24T00:00:01.909Z,80.22
2018-03-24T00:01:02.037Z,80.03
2018-03-24T00:02:02.195Z,79.55
2018-03-24T00:03:02.307Z,79.65
2018-03-24T00:04:02.437Z,79.65
2018-03-24T00:05:02.569Z,79.60
2018-03-24T00:06:02.707Z,79.36
2018-03-24T00:07:02.842Z,79.36
2018-03-24T00:08:02.973Z,79.50
2018-03-24T00:09:03.111Z,78.74
2018-03-24T00:10:03.254Z,78.36
2018-03-24T00:11:03.387Z,78.55
2018-03-24T00:12:03.521Z,78.80
2018-03-24T00:13:03.661Z,78.64
2018-03-24T00:14:03.788Z,78.83
2018-03-24T00:15:03.928Z,78.61
2018-03-24T00:16:04.065Z,78.74
2018-03-24T00:17:04.200Z,78.64
2018-03-24T00:18:04.333Z,78.74
2018-03-24T00:19:04.464Z,78.74
2018-03-24T00:20:04.598Z,78.42
2018-03-24T00:21:04.744Z,78.36
2018-03-24T00:22:04.869Z,78.36
2018-03-24T00:23:05.003Z,78.80
2018-03-24T00:24:05.143Z,78.80
2018-03-24T00:25:05.276Z,78.99
2018-03-24T00:26:05.413Z,79.36
2018-03-24T00:27:06.488Z,79.27
2018-03-24T00:28:05.646Z,79.08
2018-03-24T00:29:05.778Z,79.27
2018-03-24T00:30:05.909Z,78.80
2018-03-24T00:31:06.040Z,78.70
2018-03-24T00:32:06.176Z,78.80
2018-03-24T00:33:06.307Z,78.70
2018-03-24T00:34:06.450Z,78.61
2018-03-24T00:35:06.583Z,78.23
2018-03-24T00:36:06.713Z,78.32
2018-03-24T00:37:06.845Z,78.61
2018-03-24T00:38:06.979Z,78.45
2018-03-24T00:39:07.110Z,77.94
2018-03-24T00:40:07.243Z,77.94
2018-03-24T00:41:07.373Z,78.13
2018-03-24T00:42:07.517Z,78.23
2018-03-24T00:43:07.652Z,78.42
2018-03-24T00:44:07.787Z,78.51
2018-03-24T00:45:07.914Z,78.42
2018-03-24T00:46:08.044Z,78.32
2018-03-24T00:47:08.175Z,78.42
2018-03-24T00:48:08.312Z,78.80
2018-03-24T00:49:08.442Z,78.89
2018-03-24T00:50:08.574Z,78.80
2018-03-24T00:51:08.707Z,78.80
2018-03-24T00:52:08.842Z,78.99
2018-03-24T00:53:08.976Z,78.70
2018-03-24T00:54:09.110Z,78.80
2018-03-24T00:55:09.274Z,78.70
2018-03-24T00:56:09.476Z,78.61
2018-03-24T00:57:09.597Z,78.51
2018-03-24T00:58:09.732Z,78.32
2018-03-24T00:59:09.866Z,78.32
2018-03-24T01:00:10.002Z,78.61
2018-03-24T01:01:10.132Z,78.61
2018-03-24T01:02:10.279Z,78.13
2018-03-24T01:03:10.407Z,78.03
2018-03-24T01:04:10.538Z,77.94
2018-03-24T01:05:10.677Z,77.84
2018-03-24T01:06:10.808Z,77.84
2018-03-24T01:07:10.944Z,77.66
2018-03-24T01:08:11.080Z,77.75
2018-03-24T01:09:11.215Z,77.47
2018-03-24T01:10:11.354Z,77.75
2018-03-24T01:11:11.491Z,77.75
2018-03-24T01:12:11.625Z,77.66
2018-03-24T01:13:11.763Z,77.56
2018-03-24T01:14:11.893Z,77.75
2018-03-24T01:15:12.025Z,78.03
2018-03-24T01:16:12.158Z,77.66
2018-03-24T01:17:12.294Z,77.75
2018-03-24T01:18:12.421Z,77.84
2018-03-24T01:19:12.558Z,77.84
2018-03-24T01:20:12.690Z,78.03
2018-03-24T01:21:12.856Z,78.13
2018-03-24T01:22:13.488Z,77.75
2018-03-24T01:23:13.152Z,77.84
2018-03-24T01:24:13.288Z,78.13
2018-03-24T01:25:13.429Z,78.61
2018-03-24T01:26:13.559Z,77.56
2018-03-24T01:27:13.691Z,78.23
2018-03-24T01:28:13.826Z,78.32
2018-03-24T01:29:13.965Z,78.13
2018-03-24T01:30:14.104Z,78.03
2018-03-24T01:31:14.234Z,78.23
2018-03-24T01:32:14.372Z,78.32
2018-03-24T01:33:14.504Z,77.84
2018-03-24T01:34:14.636Z,77.84
2018-03-24T01:35:14.773Z,78.23
2018-03-24T01:36:14.907Z,78.42
2018-03-24T01:37:15.036Z,77.75
2018-03-24T01:38:15.170Z,77.66
2018-03-24T01:39:15.307Z,77.84
2018-03-24T01:40:15.445Z,77.75
2018-03-24T01:41:15.579Z,77.66
2018-03-24T01:42:15.712Z,78.03
2018-03-24T01:43:15.839Z,77.75
2018-03-24T01:44:15.982Z,78.89
2018-03-24T01:45:16.115Z,79.27
2018-03-24T01:46:16.245Z,79.17
2018-03-24T01:47:16.377Z,79.84
2018-03-24T01:48:16.513Z,79.36
2018-03-24T01:49:16.650Z,79.61
2018-03-24T01:50:16.790Z,80.46
2018-03-24T01:51:16.916Z,80.37
2018-03-24T01:52:17.049Z,81.23
2018-03-24T01:53:17.186Z,82.08
2018-03-24T01:54:17.321Z,82.36
2018-03-24T01:55:17.449Z,83.03
2018-03-24T01:56:17.592Z,82.79
2018-03-24T01:57:17.728Z,82.74
2018-03-24T01:58:17.863Z,82.74
2018-03-24T01:59:17.998Z,83.03
2018-03-24T02:00:18.133Z,83.03
2018-03-24T02:01:18.260Z,82.65
2018-03-24T02:02:18.389Z,82.55
2018-03-24T02:03:18.531Z,82.36
2018-03-24T02:04:18.655Z,83.08
2018-03-24T02:05:18.792Z,83.17
2018-03-24T02:06:18.925Z,82.89
2018-03-24T02:07:19.056Z,82.98
2018-03-24T02:08:19.193Z,83.55
2018-03-24T02:09:19.327Z,83.40
2018-03-24T02:10:19.464Z,83.50
2018-03-24T02:11:19.610Z,83.03
2018-03-24T02:12:19.748Z,82.65
2018-03-24T02:13:19.876Z,82.55
2018-03-24T02:14:20.009Z,82.36
2018-03-24T02:15:20.144Z,81.60
2018-03-24T02:16:20.273Z,80.94
2018-03-24T02:17:20.401Z,81.32
2018-03-24T02:18:20.536Z,81.13
2018-03-24T02:19:20.663Z,81.13
2018-03-24T02:20:20.798Z,81.07
2018-03-24T02:21:20.941Z,80.69
2018-03-24T02:22:21.066Z,80.88
2018-03-24T02:23:21.204Z,80.60
2018-03-24T02:24:21.326Z,80.03
2018-03-24T02:25:21.460Z,79.84
2018-03-24T02:26:21.596Z,80.13
2018-03-24T02:27:21.728Z,79.74
2018-03-24T02:28:21.860Z,79.65
2018-03-24T02:29:21.985Z,79.55
2018-03-24T02:30:22.122Z,79.61
2018-03-24T02:31:22.256Z,80.56
2018-03-24T02:32:22.405Z,80.56
2018-03-24T02:33:22.521Z,80.37
2018-03-24T02:34:22.654Z,81.13
2018-03-24T02:35:22.787Z,81.41
2018-03-24T02:36:22.919Z,81.60
2018-03-24T02:37:23.124Z,82.08
2018-03-24T02:38:23.138Z,82.42
2018-03-24T02:39:23.272Z,82.65
2018-03-24T02:40:23.404Z,82.55
2018-03-24T02:41:23.536Z,82.93
2018-03-24T02:42:23.672Z,82.17
2018-03-24T02:43:23.805Z,81.70
2018-03-24T02:44:23.935Z,81.79
2018-03-24T02:45:24.061Z,82.08
2018-03-24T02:46:24.194Z,81.79
2018-03-24T02:47:24.319Z,82.08
2018-03-24T02:48:24.452Z,81.88
2018-03-24T02:49:24.588Z,81.04
2018-03-24T02:50:24.714Z,81.41
2018-03-24T02:51:24.854Z,80.84
2018-03-24T02:52:24.992Z,81.04
2018-03-24T02:53:25.121Z,81.60
2018-03-24T02:54:25.331Z,81.23
2018-03-24T02:55:25.437Z,81.23
2018-03-24T02:56:25.573Z,81.41
2018-03-24T02:57:25.715Z,80.84
2018-03-24T02:58:25.849Z,80.27
2018-03-24T02:59:25.977Z,80.75
2018-03-24T03:00:26.109Z,80.46
2018-03-24T03:01:26.238Z,80.37
2018-03-24T03:02:26.381Z,80.51
2018-03-24T03:03:26.508Z,80.41
2018-03-24T03:04:26.636Z,80.18
2018-03-24T03:05:26.772Z,79.84
2018-03-24T03:06:26.900Z,79.65
2018-03-24T03:07:27.032Z,79.84
2018-03-24T03:08:27.159Z,80.13
2018-03-24T03:09:27.290Z,80.03
2018-03-24T03:10:27.421Z,79.55
2018-03-24T03:11:27.560Z,79.36
2018-03-24T03:12:27.688Z,79.08
2018-03-24T03:13:27.826Z,78.61
2018-03-24T03:14:27.960Z,79.46
2018-03-24T03:15:28.091Z,79.27
2018-03-24T03:16:28.218Z,79.08
2018-03-24T03:17:28.343Z,79.08
2018-03-24T03:18:28.491Z,78.99
2018-03-24T03:19:28.619Z,79.33
2018-03-24T03:20:28.755Z,79.71
2018-03-24T03:21:28.886Z,79.46
2018-03-24T03:22:29.017Z,79.74
2018-03-24T03:23:29.989Z,79.36
2018-03-24T03:24:29.346Z,79.08
2018-03-24T03:25:29.471Z,79.52
2018-03-24T03:26:29.612Z,79.55
2018-03-24T03:27:29.746Z,79.17
2018-03-24T03:28:29.882Z,79.74
2018-03-24T03:29:30.014Z,79.08
2018-03-24T03:30:30.146Z,78.70
2018-03-24T03:31:30.276Z,78.89
2018-03-24T03:32:30.411Z,78.61
2018-03-24T03:33:30.543Z,78.89
2018-03-24T03:34:30.678Z,78.70
2018-03-24T03:35:30.808Z,78.51
2018-03-24T03:36:30.953Z,78.51
2018-03-24T03:37:31.092Z,78.70
2018-03-24T03:38:31.228Z,78.70
2018-03-24T03:39:31.363Z,78.32
2018-03-24T03:40:31.495Z,78.70
2018-03-24T03:41:31.628Z,78.51
2018-03-24T03:42:31.767Z,78.70
2018-03-24T03:43:31.900Z,78.61
2018-03-24T03:44:32.031Z,78.70
2018-03-24T03:45:32.168Z,78.38
2018-03-24T03:46:32.305Z,78.75
2018-03-24T03:47:32.432Z,79.23
2018-03-24T03:48:32.566Z,79.23
2018-03-24T03:49:32.753Z,79.42
2018-03-24T03:50:32.833Z,79.46
2018-03-24T03:51:32.964Z,79.23
2018-03-24T03:52:33.992Z,79.42
2018-03-24T03:53:33.280Z,79.08
2018-03-24T03:54:33.415Z,78.80
2018-03-24T03:55:33.558Z,78.80
2018-03-24T03:56:33.686Z,78.75
2018-03-24T03:57:33.824Z,78.89
2018-03-24T03:58:33.951Z,78.70
2018-03-24T03:59:34.089Z,78.42
2018-03-24T04:00:34.217Z,78.42
2018-03-24T04:01:34.354Z,78.70
2018-03-24T04:02:34.483Z,78.56
2018-03-24T04:03:34.620Z,78.99
2018-03-24T04:04:34.750Z,79.17
2018-03-24T04:05:34.883Z,78.66
2018-03-24T04:06:35.015Z,78.70
2018-03-24T04:07:35.148Z,78.66
2018-03-24T04:08:35.282Z,78.70
2018-03-24T04:09:35.425Z,78.70
2018-03-24T04:10:35.548Z,78.80
2018-03-24T04:11:35.678Z,78.70
2018-03-24T04:12:35.807Z,78.80
2018-03-24T04:13:35.938Z,78.51
2018-03-24T04:14:36.069Z,78.32
2018-03-24T04:15:36.212Z,78.28
2018-03-24T04:16:36.342Z,78.85
2018-03-24T04:17:36.475Z,79.14
2018-03-24T04:18:36.603Z,79.71
2018-03-24T04:19:36.738Z,80.18
2018-03-24T04:20:36.873Z,80.27
2018-03-24T04:21:37.006Z,79.99
2018-03-24T04:22:37.137Z,79.80
2018-03-24T04:23:37.271Z,80.08
2018-03-24T04:24:37.401Z,80.18
2018-03-24T04:25:37.541Z,79.99
2018-03-24T04:26:37.673Z,79.80
2018-03-24T04:27:37.801Z,79.80
2018-03-24T04:28:37.935Z,79.71
2018-03-24T04:29:38.069Z,79.80
2018-03-24T04:30:38.206Z,80.08
2018-03-24T04:31:38.334Z,79.80
2018-03-24T04:32:38.468Z,80.08
2018-03-24T04:33:38.602Z,79.99
2018-03-24T04:34:38.740Z,80.18
2018-03-24T04:35:38.883Z,79.71
2018-03-24T04:36:39.012Z,79.80
2018-03-24T04:37:39.140Z,79.71
2018-03-24T04:38:39.287Z,79.33
2018-03-24T04:39:39.423Z,79.52
2018-03-24T04:40:39.554Z,79.33
2018-03-24T04:41:39.694Z,79.42
2018-03-24T04:42:39.834Z,79.42
2018-03-24T04:43:39.971Z,79.14
2018-03-24T04:44:40.093Z,79.42
2018-03-24T04:45:40.227Z,79.33
2018-03-24T04:46:40.366Z,79.33
2018-03-24T04:47:40.494Z,79.17
2018-03-24T04:48:40.632Z,79.04
2018-03-24T04:49:40.763Z,79.42
2018-03-24T04:50:40.896Z,79.23
2018-03-24T04:51:41.026Z,79.52
2018-03-24T04:52:41.165Z,79.61
2018-03-24T04:53:41.284Z,79.33
2018-03-24T04:54:41.426Z,79.90
2018-03-24T04:55:41.547Z,79.99
2018-03-24T04:56:41.684Z,79.71
2018-03-24T04:57:41.815Z,79.90
2018-03-24T04:58:41.953Z,79.52
2018-03-24T04:59:42.085Z,79.52
2018-03-24T05:00:42.218Z,79.52
2018-03-24T05:01:42.356Z,79.42
2018-03-24T05:02:42.486Z,79.33
2018-03-24T05:03:42.628Z,79.23
2018-03-24T05:04:42.831Z,79.33
2018-03-24T05:05:42.837Z,79.90
2018-03-24T05:06:42.971Z,80.08
2018-03-24T05:07:43.105Z,79.80
2018-03-24T05:08:43.241Z,79.90
2018-03-24T05:09:43.388Z,79.71
2018-03-24T05:10:43.506Z,79.80
2018-03-24T05:11:43.649Z,79.90
2018-03-24T05:12:43.784Z,79.52
2018-03-24T05:13:43.922Z,79.33
2018-03-24T05:14:44.046Z,79.23
2018-03-24T05:15:44.184Z,79.33
2018-03-24T05:16:44.316Z,79.23
2018-03-24T05:17:44.454Z,79.52
2018-03-24T05:18:44.586Z,79.33
2018-03-24T05:19:44.717Z,79.52
2018-03-24T05:20:44.851Z,79.71
2018-03-24T05:21:45.012Z,79.61
2018-03-24T05:22:45.154Z,79.65
2018-03-24T05:23:45.287Z,79.55
2018-03-24T05:24:45.424Z,79.52
2018-03-24T05:25:45.575Z,79.52
2018-03-24T05:26:45.702Z,79.84
2018-03-24T05:27:45.851Z,79.55
2018-03-24T05:28:45.974Z,79.36
2018-03-24T05:29:46.109Z,79.46
2018-03-24T05:30:46.238Z,79.36
2018-03-24T05:31:46.378Z,79.04
2018-03-24T05:32:46.509Z,79.17
2018-03-24T05:33:46.646Z,79.36
2018-03-24T05:34:46.775Z,79.74
2018-03-24T05:35:46.902Z,79.46
2018-03-24T05:36:47.038Z,79.61
2018-03-24T05:37:47.175Z,79.94
2018-03-24T05:38:47.306Z,79.33
2018-03-24T05:39:47.436Z,79.27
2018-03-24T05:40:47.566Z,79.27
2018-03-24T05:41:47.712Z,79.33
2018-03-24T05:42:47.867Z,79.36
2018-03-24T05:43:47.970Z,79.36
2018-03-24T05:44:48.113Z,79.55
2018-03-24T05:45:48.233Z,79.46
2018-03-24T05:46:48.375Z,79.74
2018-03-24T05:47:48.500Z,79.23
2018-03-24T05:48:48.635Z,79.36
2018-03-24T05:49:48.767Z,79.61
2018-03-24T05:50:48.912Z,79.74
2018-03-24T05:51:49.037Z,79.36
2018-03-24T05:52:49.178Z,79.65
2018-03-24T05:53:49.325Z,79.36
2018-03-24T05:54:49.456Z,79.36
2018-03-24T05:55:49.591Z,79.55
2018-03-24T05:56:49.726Z,79.55
2018-03-24T05:57:49.849Z,79.36
2018-03-24T05:58:49.992Z,79.17
2018-03-24T05:59:50.129Z,79.17
2018-03-24T06:00:50.264Z,79.08
2018-03-24T06:01:50.398Z,79.17
2018-03-24T06:02:50.529Z,79.36
2018-03-24T06:03:50.667Z,79.46
2018-03-24T06:04:50.800Z,78.95
2018-03-24T06:05:50.928Z,79.33
2018-03-24T06:06:51.065Z,79.52
2018-03-24T06:07:51.190Z,79.71
2018-03-24T06:08:51.323Z,79.99
2018-03-24T06:09:51.454Z,79.99
2018-03-24T06:10:51.587Z,79.90
2018-03-24T06:11:51.719Z,80.37
2018-03-24T06:12:51.853Z,80.37
2018-03-24T06:13:51.987Z,81.13
2018-03-24T06:14:52.118Z,81.13
2018-03-24T06:15:52.241Z,81.04
2018-03-24T06:16:52.375Z,81.04
2018-03-24T06:17:52.507Z,80.94
2018-03-24T06:18:52.638Z,81.04
2018-03-24T06:19:52.777Z,81.04
2018-03-24T06:20:52.907Z,80.75
2018-03-24T06:21:53.034Z,81.04
2018-03-24T06:22:53.173Z,81.04
2018-03-24T06:23:53.302Z,81.32
2018-03-24T06:24:53.439Z,82.04
2018-03-24T06:25:53.568Z,82.70
2018-03-24T06:26:53.700Z,82.55
2018-03-24T06:27:53.836Z,82.60
2018-03-24T06:28:53.976Z,82.27
2018-03-24T06:29:54.107Z,82.08
2018-03-24T06:30:54.241Z,82.55
2018-03-24T06:31:54.373Z,81.88
2018-03-24T06:32:54.515Z,81.70
2018-03-24T06:33:54.646Z,81.60
2018-03-24T06:34:54.777Z,81.04
2018-03-24T06:35:54.908Z,81.04
2018-03-24T06:36:55.058Z,81.51
2018-03-24T06:37:55.186Z,81.04
2018-03-24T06:38:55.316Z,80.32
2018-03-24T06:39:55.452Z,80.60
2018-03-24T06:40:55.586Z,80.13
2018-03-24T06:41:55.719Z,80.60
2018-03-24T06:42:55.851Z,80.22
2018-03-24T06:43:55.988Z,80.79
2018-03-24T06:44:56.141Z,80.32
2018-03-24T06:45:56.255Z,79.94
2018-03-24T06:46:56.385Z,79.94
2018-03-24T06:47:56.522Z,79.84
2018-03-24T06:48:56.653Z,79.55
2018-03-24T06:49:56.784Z,79.84
2018-03-24T06:50:56.931Z,80.03
2018-03-24T06:51:57.065Z,79.84
2018-03-24T06:52:57.194Z,79.36
2018-03-24T06:53:57.329Z,79.17
2018-03-24T06:54:57.462Z,79.17
2018-03-24T06:55:57.591Z,79.36
2018-03-24T06:56:57.727Z,79.36
2018-03-24T06:57:57.858Z,79.36
2018-03-24T06:58:57.999Z,79.69
2018-03-24T06:59:58.127Z,79.08
2018-03-24T07:00:58.263Z,79.41
2018-03-24T07:01:58.396Z,79.36
2018-03-24T07:02:58.529Z,79.31
2018-03-24T07:03:58.667Z,78.70
2018-03-24T07:04:58.799Z,78.64
2018-03-24T07:05:59.502Z,78.74
2018-03-24T07:06:59.055Z,78.55
2018-03-24T07:07:59.184Z,78.74
2018-03-24T07:08:59.320Z,78.64
2018-03-24T07:09:59.455Z,78.83
2018-03-24T07:10:59.589Z,78.27
2018-03-24T07:11:59.723Z,78.83
2018-03-24T07:12:59.855Z,78.55
2018-03-24T07:13:59.986Z,78.36
2018-03-24T07:15:00.131Z,78.17
2018-03-24T07:16:00.253Z,78.17
2018-03-24T07:17:00.397Z,78.08
2018-03-24T07:18:00.527Z,77.98
2018-03-24T07:19:00.662Z,78.36
2018-03-24T07:20:00.796Z,78.11
2018-03-24T07:21:00.927Z,78.40
2018-03-24T07:22:01.064Z,78.21
2018-03-24T07:23:01.203Z,78.11
2018-03-24T07:24:01.344Z,77.64
2018-03-24T07:25:01.479Z,77.92
2018-03-24T07:26:01.649Z,77.07
2018-03-24T07:27:01.779Z,76.88
2018-03-24T07:28:01.920Z,76.78
2018-03-24T07:29:02.075Z,76.88
2018-03-24T07:30:02.189Z,76.97
2018-03-24T07:31:02.324Z,77.26
2018-03-24T07:32:02.468Z,76.88
2018-03-24T07:33:02.594Z,76.78
2018-03-24T07:34:02.732Z,76.78
2018-03-24T07:35:02.866Z,76.59
2018-03-24T07:36:03.006Z,76.59
2018-03-24T07:37:03.144Z,77.73
2018-03-24T07:38:03.278Z,78.30
2018-03-24T07:39:03.414Z,78.11
2018-03-24T07:40:03.549Z,77.73
2018-03-24T07:41:03.687Z,77.17
2018-03-24T07:42:03.820Z,77.83
2018-03-24T07:43:03.955Z,77.73
2018-03-24T07:44:04.091Z,77.97
2018-03-24T07:45:04.224Z,77.83
2018-03-24T07:46:04.368Z,77.73
2018-03-24T07:47:04.510Z,78.88
2018-03-24T07:48:04.664Z,79.16
2018-03-24T07:49:04.797Z,78.88
2018-03-24T07:50:04.942Z,78.25
2018-03-24T07:51:05.077Z,78.06
2018-03-24T07:52:05.208Z,77.68
2018-03-24T07:53:05.344Z,77.87
2018-03-24T07:54:05.483Z,77.01
2018-03-24T07:55:05.615Z,76.44
2018-03-24T07:56:05.751Z,76.44
2018-03-24T07:57:05.896Z,76.82
2018-03-24T07:58:06.028Z,78.16
2018-03-24T07:59:06.167Z,78.06
2018-03-24T08:00:06.302Z,77.01
2018-03-24T08:01:06.439Z,77.11
2018-03-24T08:02:06.580Z,77.68
2018-03-24T08:03:06.713Z,76.86
2018-03-24T08:04:06.916Z,76.67
2018-03-24T08:05:06.925Z,75.34
2018-03-24T08:06:07.058Z,75.43
2018-03-24T08:07:07.206Z,74.77
2018-03-24T08:08:07.336Z,74.77
2018-03-24T08:09:07.472Z,75.43
2018-03-24T08:10:07.613Z,75.15
2018-03-24T08:11:07.739Z,75.34
2018-03-24T08:12:07.878Z,74.58
2018-03-24T08:13:08.014Z,74.20
2018-03-24T08:14:08.153Z,73.91
2018-03-24T08:15:08.287Z,73.82
2018-03-24T08:16:08.423Z,73.91
2018-03-24T08:17:08.561Z,73.82
2018-03-24T08:18:08.693Z,72.30
2018-03-24T08:19:08.821Z,72.20
2018-03-24T08:20:08.967Z,72.49
2018-03-24T08:21:09.101Z,72.67
2018-03-24T08:22:09.234Z,72.20
2018-03-24T08:23:09.373Z,72.24
2018-03-24T08:24:09.531Z,71.44
2018-03-24T08:25:09.673Z,72.39
2018-03-24T08:26:09.808Z,72.90
2018-03-24T08:27:09.942Z,73.19
2018-03-24T08:28:10.141Z,72.81
2018-03-24T08:29:10.217Z,73.10
2018-03-24T08:30:10.357Z,73.00
2018-03-24T08:31:10.488Z,72.42
2018-03-24T08:32:10.627Z,71.57
2018-03-24T08:33:10.766Z,70.90
2018-03-24T08:34:10.892Z,70.43
2018-03-24T08:35:11.023Z,69.29
2018-03-24T08:36:11.160Z,67.00
2018-03-24T08:37:11.295Z,65.29
2018-03-24T08:38:11.430Z,65.00
2018-03-24T08:39:11.564Z,65.19
2018-03-24T08:40:11.703Z,65.77
2018-03-24T08:41:11.844Z,66.14
2018-03-24T08:42:11.978Z,66.72
2018-03-24T08:43:12.109Z,67.29
2018-03-24T08:44:12.250Z,65.67
2018-03-24T08:45:12.392Z,66.91
2018-03-24T08:46:12.531Z,69.10
2018-03-24T08:47:12.671Z,69.76
2018-03-24T08:48:12.816Z,69.89
2018-03-24T08:49:12.956Z,67.99
2018-03-24T08:50:13.092Z,68.18
2018-03-24T08:51:13.228Z,66.66
2018-03-24T08:52:13.362Z,65.23
2018-03-24T08:53:13.516Z,63.60
2018-03-24T08:54:13.649Z,64.37
2018-03-24T08:55:13.780Z,64.47
2018-03-24T08:56:13.920Z,63.80
2018-03-24T08:57:14.062Z,62.15
2018-03-24T08:58:14.198Z,61.99
2018-03-24T08:59:14.327Z,61.19
2018-03-24T09:00:14.474Z,61.38
2018-03-24T09:01:14.616Z,61.42
2018-03-24T09:02:14.750Z,61.99
2018-03-24T09:03:14.887Z,62.94
2018-03-24T09:04:15.024Z,61.51
2018-03-24T09:05:16.025Z,59.03
2018-03-24T09:07:47.117Z,59.39
2018-03-24T09:08:47.317Z,59.61
2018-03-24T09:09:47.385Z,58.15
2018-03-24T09:10:47.520Z,56.92
2018-03-24T09:11:47.657Z,55.99
2018-03-24T09:12:47.792Z,57.23
2018-03-24T09:13:47.923Z,56.37
2018-03-24T09:14:48.056Z,58.18
2018-03-24T09:15:48.196Z,57.45
2018-03-24T09:16:48.329Z,56.49
2018-03-24T09:17:48.464Z,57.45
2018-03-24T09:18:48.598Z,56.49
2018-03-24T09:19:48.731Z,57.09
2018-03-24T09:20:48.862Z,54.52
2018-03-24T09:21:48.997Z,53.28
2018-03-24T09:22:49.139Z,54.90
2018-03-24T09:23:49.280Z,53.66
2018-03-24T09:24:49.415Z,53.00
2018-03-24T09:25:49.558Z,52.49
2018-03-24T09:26:49.691Z,52.49
2018-03-24T09:27:49.825Z,53.16
2018-03-24T09:28:49.965Z,54.59
2018-03-24T09:29:50.100Z,54.39
2018-03-24T09:30:50.243Z,55.35
2018-03-24T09:31:50.388Z,54.39
2018-03-24T09:32:50.528Z,53.83
2018-03-24T09:33:50.658Z,53.54
2018-03-24T09:34:50.796Z,53.64
2018-03-24T09:35:50.929Z,53.64
2018-03-24T09:36:51.067Z,53.16
2018-03-24T09:37:51.208Z,53.25
2018-03-24T09:38:51.353Z,53.28
2018-03-24T09:39:51.498Z,54.61
2018-03-24T09:40:51.627Z,53.95
2018-03-24T09:41:51.767Z,52.14
2018-03-24T09:42:51.900Z,51.35
2018-03-24T09:43:52.044Z,50.49
2018-03-24T09:44:52.182Z,50.40
2018-03-24T09:45:52.319Z,51.16
2018-03-24T09:46:52.462Z,51.16
2018-03-24T09:47:52.597Z,49.56
2018-03-24T09:48:52.737Z,49.28
2018-03-24T09:49:52.887Z,50.42
2018-03-24T09:50:53.030Z,51.47
2018-03-24T09:51:53.166Z,50.32
2018-03-24T09:52:53.397Z,49.18
2018-03-24T09:53:53.450Z,49.56
2018-03-24T09:54:53.578Z,49.76
2018-03-24T09:55:53.718Z,48.42
2018-03-24T09:56:53.864Z,48.42
2018-03-24T09:57:54.002Z,48.68
2018-03-24T09:58:54.146Z,48.30
2018-03-24T09:59:54.281Z,50.11
2018-03-24T10:00:54.424Z,49.61
2018-03-24T10:01:54.560Z,50.66
2018-03-24T10:02:54.697Z,51.42
2018-03-24T10:03:54.865Z,51.97
2018-03-24T10:04:55.011Z,51.58
2018-03-24T10:05:55.145Z,52.25
2018-03-24T10:06:55.296Z,52.53
2018-03-24T10:07:55.425Z,52.92
2018-03-24T10:08:55.560Z,53.49
2018-03-24T10:09:55.697Z,53.30
2018-03-24T10:10:55.847Z,51.39
2018-03-24T10:11:55.981Z,51.01
2018-03-24T10:12:56.165Z,51.87
2018-03-24T10:13:56.304Z,52.72
2018-03-24T10:14:56.440Z,52.44
2018-03-24T10:15:56.577Z,52.25
2018-03-24T10:16:56.745Z,52.15
2018-03-24T10:17:56.879Z,51.68
2018-03-24T10:18:57.018Z,52.63
2018-03-24T10:19:57.153Z,52.63
2018-03-24T10:20:57.316Z,51.97
2018-03-24T10:21:57.444Z,51.97
2018-03-24T10:22:57.587Z,51.87
2018-03-24T10:23:57.727Z,52.53
2018-03-24T10:24:57.896Z,52.72
2018-03-24T10:25:58.025Z,52.82
2018-03-24T10:26:58.162Z,53.11
2018-03-24T10:27:58.302Z,53.58
2018-03-24T10:28:58.435Z,53.49
2018-03-24T10:29:58.573Z,53.01
2018-03-24T10:30:58.706Z,53.87
2018-03-24T10:31:58.837Z,53.39
2018-03-24T10:32:58.972Z,53.01
2018-03-24T10:33:59.111Z,53.30
2018-03-24T10:34:59.248Z,52.70
2018-03-24T10:35:59.380Z,52.44
2018-03-24T10:36:59.519Z,52.92
2018-03-24T10:37:59.688Z,53.01
2018-03-24T10:38:59.826Z,52.44
2018-03-24T10:39:59.963Z,52.72
2018-03-24T10:41:00.120Z,52.63
2018-03-24T10:42:00.256Z,52.72
2018-03-24T10:43:00.393Z,53.39
2018-03-24T10:44:00.537Z,53.75
2018-03-24T10:45:00.698Z,54.32
2018-03-24T10:46:00.810Z,54.41
2018-03-24T10:47:00.993Z,53.84
2018-03-24T10:48:01.132Z,53.36
2018-03-24T10:49:01.262Z,53.36
2018-03-24T10:50:01.406Z,53.36
2018-03-24T10:51:01.549Z,53.27
2018-03-24T10:52:01.685Z,53.20
2018-03-24T10:53:01.821Z,52.72
2018-03-24T10:54:01.979Z,52.53
2018-03-24T10:55:02.107Z,52.53
2018-03-24T10:56:02.249Z,52.25
2018-03-24T10:57:02.382Z,52.34
2018-03-24T10:58:02.555Z,52.53
2018-03-24T10:59:02.656Z,53.30
2018-03-24T11:00:02.803Z,53.01
2018-03-24T11:01:02.930Z,53.49
2018-03-24T11:02:03.066Z,52.92
2018-03-24T11:03:03.202Z,52.44
2018-03-24T11:04:03.339Z,52.15
2018-03-24T11:05:03.465Z,51.78
2018-03-24T11:06:03.605Z,51.68
2018-03-24T11:07:03.738Z,52.15
2018-03-24T11:08:03.875Z,52.25
2018-03-24T11:09:04.011Z,52.25
2018-03-24T11:10:04.150Z,51.32
2018-03-24T11:11:04.290Z,50.85
2018-03-24T11:12:04.419Z,50.94
2018-03-24T11:13:04.555Z,51.04
2018-03-24T11:14:04.692Z,50.85
2018-03-24T11:15:04.848Z,51.04
2018-03-24T11:16:04.986Z,51.14
2018-03-24T11:17:05.122Z,51.04
2018-03-24T11:18:05.256Z,51.23
2018-03-24T11:19:05.394Z,51.32
2018-03-24T11:20:05.532Z,50.46
2018-03-24T11:21:05.662Z,49.35
2018-03-24T11:22:05.811Z,49.35
2018-03-24T11:23:05.946Z,48.02
2018-03-24T11:24:06.123Z,47.44
2018-03-24T11:25:06.219Z,49.16
2018-03-24T11:26:06.360Z,49.35
2018-03-24T11:27:06.499Z,49.82
2018-03-24T11:28:06.630Z,51.06
2018-03-24T11:29:06.772Z,50.42
2018-03-24T11:30:06.912Z,49.37
2018-03-24T11:31:07.051Z,48.42
2018-03-24T11:32:07.185Z,47.75
2018-03-24T11:33:07.385Z,47.94
2018-03-24T11:34:07.465Z,47.08
2018-03-24T11:35:07.599Z,47.28
2018-03-24T11:36:07.736Z,47.25
2018-03-24T11:37:07.875Z,46.87
2018-03-24T11:38:08.010Z,47.44
2018-03-24T11:39:08.151Z,47.06
2018-03-24T11:40:08.298Z,47.34
2018-03-24T11:41:08.441Z,47.34
2018-03-24T11:42:08.574Z,46.68
2018-03-24T11:43:08.709Z,46.61
2018-03-24T11:44:08.861Z,46.42
2018-03-24T11:45:08.993Z,46.51
2018-03-24T11:46:09.140Z,46.42
2018-03-24T11:47:09.286Z,46.89
2018-03-24T11:48:09.425Z,46.44
2018-03-24T11:49:09.559Z,46.23
2018-03-24T11:50:09.698Z,45.97
2018-03-24T11:51:09.839Z,45.47
2018-03-24T11:52:09.967Z,45.18
2018-03-24T11:53:10.111Z,45.08
2018-03-24T11:54:10.337Z,45.58
2018-03-24T11:55:10.402Z,45.10
2018-03-24T11:56:10.587Z,43.87
2018-03-24T11:57:10.677Z,43.68
2018-03-24T11:58:10.842Z,44.17
2018-03-24T11:59:10.970Z,44.27
2018-03-24T12:00:11.118Z,44.08
2018-03-24T12:01:11.249Z,44.56
2018-03-24T12:02:11.393Z,44.08
2018-03-24T12:03:11.555Z,43.60
2018-03-24T12:04:11.674Z,43.70
2018-03-24T12:05:11.815Z,42.48
2018-03-24T12:06:11.968Z,42.00
2018-03-24T12:07:12.103Z,42.00
2018-03-24T12:08:12.242Z,41.71
2018-03-24T12:09:12.377Z,41.05
2018-03-24T12:10:12.545Z,41.35
2018-03-24T12:11:12.684Z,39.40
2018-03-24T12:12:12.817Z,36.11
2018-03-24T12:13:12.954Z,34.36
2018-03-24T12:14:13.111Z,31.53
2018-03-24T12:15:13.255Z,27.44
2018-03-24T12:16:13.396Z,25.34
2018-03-24T12:17:13.563Z,23.65
2018-03-24T12:18:13.712Z,21.07
2018-03-24T12:19:13.854Z,20.99
2018-03-24T12:20:14.001Z,19.57
2018-03-24T12:21:14.170Z,17.54
2018-03-24T12:22:14.313Z,15.32
2018-03-24T12:23:14.431Z,15.69
2018-03-24T12:24:14.572Z,16.28
2018-03-24T12:25:14.715Z,15.44
2018-03-24T12:26:14.861Z,14.07
2018-03-24T12:27:15.012Z,13.40
2018-03-24T12:28:15.159Z,14.53
2018-03-24T12:29:15.331Z,15.38
2018-03-24T12:30:15.481Z,16.62
2018-03-24T12:31:15.667Z,17.41
2018-03-24T12:32:15.810Z,18.82
2018-03-24T12:33:15.981Z,21.69
2018-03-24T12:34:16.181Z,22.93
2018-03-24T12:35:16.325Z,23.19
2018-03-24T12:36:16.471Z,23.86
2018-03-24T12:37:16.632Z,23.86
2018-03-24T12:38:16.790Z,23.51
2018-03-24T12:39:16.937Z,22.45
2018-03-24T12:40:17.109Z,22.45
2018-03-24T12:41:17.251Z,22.06
2018-03-24T12:42:17.408Z,21.99
2018-03-24T12:43:17.585Z,20.53
2018-03-24T12:44:17.733Z,20.70
2018-03-24T12:45:17.881Z,20.43
2018-03-24T12:46:18.028Z,20.72
2018-03-24T12:47:18.184Z,19.87
2018-03-24T12:48:18.337Z,18.24
2018-03-24T12:49:18.493Z,18.49
2018-03-24T12:50:18.630Z,19.57
2018-03-24T12:51:18.777Z,19.12
2018-03-24T12:52:18.936Z,18.37
2018-03-24T12:53:19.089Z,17.22
2018-03-24T12:54:19.233Z,15.50
2018-03-24T12:55:19.389Z,15.33